PWSweather.com
Personal Weather Stations
Station Observations

BunburyAU

Lat: -33.378333, Lon: 115.651667

Elevation: 65

Station Type: Oregon Scientific WMR88

http://www.collegegrove.info

Latest ConditionsUpdated 12:30:00 PM GMT+08:08 Saturday, Aug 27, 2016
Currently Today's Max Today's Min Today's Average
Temperature 60.3°F15.7°C 60.3°F15.7°C 54.5°F12.5°C 56.2°F13.4°C
Dew Point 51.6°F10.9°C 52.5°F11.4°C 46.9°F8.3°C 49.8°F9.9°C
Winds 4.9 mph WSW7.9 kmh WSW 4.9 mph WSW7.9 kmh WSW - 2.3 mph 3.7 kmh
Wind Gusts 11.9 mph19.2 kmh 11.9 mph19.2 kmh - -
Humidity 73% 84% 71% 79%
Pressure 29.56 in1001.0 mb 29.62 in1003.0 mb 29.53 in1000.0 mb -
Precipitation - 0.46 in11.7 mm - -
Hour Temp Dew Point Humidity Winds Wind Gusts Pressure Precip Precip Rate Daily Precip Total
12:30 PM 60.3°F15.7°C 51.6°F10.9°C 73% 4.9 mph WSW7.9 kmh WSW 11.9 mph19.2 kmh 29.56 in1001.0 mb 0.00 in0.0 mm 0.00 in0.0 mm 0.46 in11.7 mm
12:15 PM 60.1°F15.6°C 52.5°F11.4°C 76% 3.9 mph NNE6.3 kmh NNE 7.2 mph11.6 kmh 29.56 in1001.0 mb 0.00 in0.0 mm 0.00 in0.0 mm 0.46 in11.7 mm
12:00 PM 59.4°F15.2°C 50.3°F10.2°C 72% 3.5 mph WSW5.6 kmh WSW 6.5 mph10.5 kmh 29.56 in1001.0 mb 0.00 in0.0 mm 0.00 in0.0 mm 0.46 in11.7 mm
11:45 AM 58.8°F14.9°C 50.5°F10.3°C 74% 2.6 mph SSE4.2 kmh SSE 4.5 mph7.2 kmh 29.56 in1001.0 mb 0.00 in0.0 mm 0.00 in0.0 mm 0.46 in11.7 mm
11:30 AM 58.6°F14.8°C 51.8°F11.0°C 78% 2.9 mph SW4.7 kmh SW 5.4 mph8.7 kmh 29.56 in1001.0 mb 0.00 in0.0 mm 0.00 in0.0 mm 0.46 in11.7 mm
11:15 AM 57.7°F14.3°C 50.2°F10.1°C 76% 3.2 mph NW5.1 kmh NW 6.5 mph10.5 kmh 29.56 in1001.0 mb 0.00 in0.0 mm 0.00 in0.0 mm 0.46 in11.7 mm
11:00 AM 58.1°F14.5°C 48.7°F9.3°C 71% 3.5 mph SW5.6 kmh SW 8.5 mph13.7 kmh 29.56 in1001.0 mb 0.00 in0.0 mm 0.00 in0.0 mm 0.46 in11.7 mm
10:45 AM 58.1°F14.5°C 49.5°F9.7°C 73% 3.2 mph WNW5.1 kmh WNW 4.9 mph7.9 kmh 29.56 in1001.0 mb 0.00 in0.0 mm 0.00 in0.0 mm 0.46 in11.7 mm
10:30 AM 57.6°F14.2°C 49.3°F9.6°C 74% 3.4 mph NW5.5 kmh NW 5.4 mph8.7 kmh 29.56 in1001.0 mb 0.00 in0.0 mm 0.00 in0.0 mm 0.46 in11.7 mm
10:15 AM 57.7°F14.3°C 50.2°F10.1°C 76% 3.0 mph WNW4.8 kmh WNW 5.6 mph9.0 kmh 29.56 in1001.0 mb 0.00 in0.0 mm 0.00 in0.0 mm 0.46 in11.7 mm
10:00 AM 56.8°F13.8°C 50.1°F10.1°C 78% 2.8 mph W4.5 kmh W 5.8 mph9.3 kmh 29.56 in1001.0 mb 0.00 in0.0 mm 0.00 in0.0 mm 0.46 in11.7 mm
09:45 AM 56.3°F13.5°C 49.9°F9.9°C 79% 2.9 mph NE4.7 kmh NE 5.8 mph9.3 kmh 29.56 in1001.0 mb 0.04 in1.0 mm 0.00 in0.0 mm 0.46 in11.7 mm
09:30 AM 56.3°F13.5°C 50.5°F10.3°C 81% 2.0 mph W3.2 kmh W 4.9 mph7.9 kmh 29.56 in1001.0 mb 0.04 in1.0 mm 0.00 in0.0 mm 0.46 in11.7 mm
09:15 AM 56.1°F13.4°C 50.4°F10.2°C 81% 1.7 mph W2.7 kmh W 6.3 mph10.1 kmh 29.56 in1001.0 mb 0.04 in1.0 mm 0.00 in0.0 mm 0.46 in11.7 mm
09:00 AM 56.3°F13.5°C 51.2°F10.7°C 83% 2.0 mph SE3.2 kmh SE 4.0 mph6.4 kmh 29.56 in1001.0 mb 0.04 in1.0 mm 0.05 in1.3 mm 0.46 in11.7 mm
08:45 AM 56.7°F13.7°C 50.9°F10.5°C 81% 3.3 mph ENE5.3 kmh ENE 8.1 mph13.0 kmh 29.56 in1001.0 mb 0.00 in0.0 mm 0.00 in0.0 mm 0.42 in10.7 mm
08:30 AM 55.0°F12.8°C 49.3°F9.6°C 81% 2.2 mph N3.5 kmh N 8.7 mph14.0 kmh 29.56 in1001.0 mb 0.00 in0.0 mm 0.00 in0.0 mm 0.42 in10.7 mm
08:15 AM 55.0°F12.8°C 49.0°F9.4°C 80% 2.2 mph E3.5 kmh E 4.9 mph7.9 kmh 29.56 in1001.0 mb 0.00 in0.0 mm 0.00 in0.0 mm 0.42 in10.7 mm
08:00 AM 55.4°F13.0°C 48.7°F9.3°C 78% 2.3 mph NE3.7 kmh NE 4.0 mph6.4 kmh 29.56 in1001.0 mb 0.00 in0.0 mm 0.00 in0.0 mm 0.42 in10.7 mm
07:45 AM 55.0°F12.8°C 49.3°F9.6°C 81% 2.5 mph N4.0 kmh N 4.7 mph7.6 kmh 29.56 in1001.0 mb 0.00 in0.0 mm 0.00 in0.0 mm 0.42 in10.7 mm
07:30 AM 54.7°F12.6°C 48.3°F9.1°C 79% 1.1 mph W1.8 kmh W 3.8 mph6.1 kmh 29.56 in1001.0 mb 0.00 in0.0 mm 0.00 in0.0 mm 0.42 in10.7 mm
07:15 AM 54.7°F12.6°C 48.3°F9.1°C 79% 1.1 mph NE1.8 kmh NE 3.1 mph5.0 kmh 29.56 in1001.0 mb 0.00 in0.0 mm 0.00 in0.0 mm 0.42 in10.7 mm
07:00 AM 54.9°F12.7°C 48.1°F8.9°C 78% 3.0 mph N4.8 kmh N 6.5 mph10.5 kmh 29.56 in1001.0 mb 0.00 in0.0 mm 0.00 in0.0 mm 0.42 in10.7 mm
06:45 AM 54.9°F12.7°C 47.1°F8.4°C 75% 3.0 mph ENE4.8 kmh ENE 4.3 mph6.9 kmh 29.53 in1000.0 mb 0.00 in0.0 mm 0.00 in0.0 mm 0.42 in10.7 mm
06:30 AM 54.9°F12.7°C 47.4°F8.6°C 76% 3.3 mph S5.3 kmh S 6.5 mph10.5 kmh 29.56 in1001.0 mb 0.00 in0.0 mm 0.00 in0.0 mm 0.42 in10.7 mm
06:15 AM 54.9°F12.7°C 48.1°F8.9°C 78% 2.5 mph NE4.0 kmh NE 5.4 mph8.7 kmh 29.56 in1001.0 mb 0.00 in0.0 mm 0.00 in0.0 mm 0.42 in10.7 mm
06:00 AM 54.7°F12.6°C 47.3°F8.5°C 76% 2.0 mph NE3.2 kmh NE 4.3 mph6.9 kmh 29.56 in1001.0 mb 0.00 in0.0 mm 0.00 in0.0 mm 0.42 in10.7 mm
05:45 AM 54.9°F12.7°C 47.8°F8.8°C 77% 1.9 mph NW3.1 kmh NW 3.1 mph5.0 kmh 29.56 in1001.0 mb 0.00 in0.0 mm 0.00 in0.0 mm 0.42 in10.7 mm
05:30 AM 54.5°F12.5°C 47.1°F8.4°C 76% 2.2 mph ESE3.5 kmh ESE 3.8 mph6.1 kmh 29.56 in1001.0 mb 0.00 in0.0 mm 0.00 in0.0 mm 0.42 in10.7 mm
05:15 AM 54.7°F12.6°C 46.9°F8.3°C 75% 2.1 mph E3.4 kmh E 4.7 mph7.6 kmh 29.56 in1001.0 mb 0.00 in0.0 mm 0.00 in0.0 mm 0.42 in10.7 mm
05:00 AM 54.9°F12.7°C 47.4°F8.6°C 76% 2.3 mph ENE3.7 kmh ENE 3.1 mph5.0 kmh 29.56 in1001.0 mb 0.00 in0.0 mm 0.00 in0.0 mm 0.42 in10.7 mm
04:45 AM 54.9°F12.7°C 48.5°F9.2°C 79% 1.0 mph S1.6 kmh S 3.1 mph5.0 kmh 29.56 in1001.0 mb 0.00 in0.0 mm 0.00 in0.0 mm 0.42 in10.7 mm
04:30 AM 55.0°F12.8°C 48.3°F9.1°C 78% 1.9 mph NE3.1 kmh NE 3.4 mph5.5 kmh 29.56 in1001.0 mb 0.00 in0.0 mm 0.00 in0.0 mm 0.42 in10.7 mm
04:15 AM 54.9°F12.7°C 47.8°F8.8°C 77% 1.9 mph SE3.1 kmh SE 3.8 mph6.1 kmh 29.56 in1001.0 mb 0.00 in0.0 mm 0.00 in0.0 mm 0.42 in10.7 mm
04:00 AM 55.0°F12.8°C 48.3°F9.1°C 78% 1.5 mph WNW2.4 kmh WNW 4.0 mph6.4 kmh 29.56 in1001.0 mb 0.09 in2.3 mm 0.00 in0.0 mm 0.42 in10.7 mm
03:45 AM 55.2°F12.9°C 49.5°F9.7°C 81% 2.6 mph S4.2 kmh S 5.4 mph8.7 kmh 29.56 in1001.0 mb 0.09 in2.3 mm 0.00 in0.0 mm 0.42 in10.7 mm
03:30 AM 55.4°F13.0°C 50.3°F10.2°C 83% 0.8 mph SSE1.3 kmh SSE 3.1 mph5.0 kmh 29.56 in1001.0 mb 0.09 in2.3 mm 0.00 in0.0 mm 0.42 in10.7 mm
03:15 AM 55.4°F13.0°C 50.6°F10.3°C 84% 1.2 mph S1.9 kmh S 2.9 mph4.7 kmh 29.56 in1001.0 mb 0.09 in2.3 mm 0.36 in9.1 mm 0.42 in10.7 mm
03:00 AM 55.8°F13.2°C 51.0°F10.6°C 84% 2.6 mph NNW4.2 kmh NNW 5.4 mph8.7 kmh 29.56 in1001.0 mb 0.00 in0.0 mm 0.00 in0.0 mm 0.33 in8.4 mm
02:45 AM 55.9°F13.3°C 51.2°F10.7°C 84% 3.2 mph NW5.1 kmh NW 4.9 mph7.9 kmh 29.56 in1001.0 mb 0.04 in1.0 mm 0.00 in0.0 mm 0.33 in8.4 mm
02:30 AM 55.9°F13.3°C 50.9°F10.5°C 83% 1.3 mph NNE2.1 kmh NNE 3.4 mph5.5 kmh 29.59 in1002.0 mb 0.08 in2.0 mm 0.00 in0.0 mm 0.33 in8.4 mm
02:15 AM 55.9°F13.3°C 50.9°F10.5°C 83% 1.7 mph NNE2.7 kmh NNE 3.4 mph5.5 kmh 29.56 in1001.0 mb 0.20 in5.1 mm 0.00 in0.0 mm 0.33 in8.4 mm
02:00 AM 55.9°F13.3°C 50.9°F10.5°C 83% 1.7 mph E2.7 kmh E 4.3 mph6.9 kmh 29.59 in1002.0 mb 0.20 in5.1 mm 0.00 in0.0 mm 0.33 in8.4 mm
01:45 AM 56.1°F13.4°C 51.0°F10.6°C 83% 1.3 mph ENE2.1 kmh ENE 2.7 mph4.3 kmh 29.59 in1002.0 mb 0.20 in5.1 mm 0.16 in4.1 mm 0.29 in7.4 mm
01:30 AM 56.1°F13.4°C 51.0°F10.6°C 83% 2.4 mph S3.9 kmh S 6.0 mph9.7 kmh 29.59 in1002.0 mb 0.16 in4.1 mm 0.28 in7.1 mm 0.25 in6.4 mm
01:15 AM 56.7°F13.7°C 51.6°F10.9°C 83% 2.8 mph W4.5 kmh W 5.6 mph9.0 kmh 29.59 in1002.0 mb 0.09 in2.3 mm 0.00 in0.0 mm 0.13 in3.3 mm
01:00 AM 56.8°F13.8°C 51.7°F10.9°C 83% 1.9 mph SE3.1 kmh SE 3.4 mph5.5 kmh 29.59 in1002.0 mb 0.13 in3.3 mm 0.05 in1.3 mm 0.13 in3.3 mm
12:45 AM 56.8°F13.8°C 51.7°F10.9°C 83% 1.2 mph E1.9 kmh E 3.8 mph6.1 kmh 29.62 in1003.0 mb 0.09 in2.3 mm 0.00 in0.0 mm 0.09 in2.3 mm
12:30 AM 57.2°F14.0°C 52.4°F11.3°C 84% 2.7 mph E4.3 kmh E 6.5 mph10.5 kmh 29.62 in1003.0 mb 0.09 in2.3 mm 0.04 in1.0 mm 0.09 in2.3 mm
12:15 AM 57.4°F14.1°C 52.3°F11.3°C 83% 1.2 mph NE1.9 kmh NE 2.2 mph3.5 kmh 29.62 in1003.0 mb 0.08 in2.0 mm 0.00 in0.0 mm 0.04 in1.0 mm
12:00 AM 57.4°F14.1°C 52.3°F11.3°C 83% 1.3 mph NW2.1 kmh NW 2.9 mph4.7 kmh 29.62 in1003.0 mb 0.08 in2.0 mm 0.00 in0.0 mm 0.08 in2.0 mm